Time;durP1;ratioP1;P1;durP2;ratioP2;P2;SDS_P1;SDS_P2;PMS_P1;PMS_P2;Temp;Humidity;BMP_temperature;BMP_pressure;BME280_temperature;BME280_humidity;BME280_pressure;Samples;Min_cycle;Max_cycle;Signal;HPM_P1;HPM_P2
2024/02/09 00:00:07;;;;;;;1.60;1.50;;;1.70;99.90;;;;;;5122268;28;20233;-67
2024/02/09 00:02:35;;;;;;;1.70;1.52;;;1.70;99.90;;;;;;5120075;28;20766;-66
2024/02/09 00:05:01;;;;;;;1.70;1.35;;;1.70;99.90;;;;;;5119365;28;20673;-68
2024/02/09 00:07:28;;;;;;;3.85;1.30;;;1.70;99.90;;;;;;5119189;28;20676;-67
2024/02/09 00:09:55;;;;;;;1.55;1.23;;;1.70;99.90;;;;;;5119511;28;20211;-65
2024/02/09 00:12:22;;;;;;;2.00;1.45;;;1.70;99.90;;;;;;5118874;28;20589;-66
2024/02/09 00:14:49;;;;;;;1.90;1.40;;;1.70;99.90;;;;;;5118654;28;20204;-66
2024/02/09 00:17:17;;;;;;;1.48;1.38;;;1.70;99.90;;;;;;5119265;28;20206;-67
2024/02/09 00:19:44;;;;;;;2.15;1.40;;;1.70;99.90;;;;;;5119329;28;20550;-66
2024/02/09 00:22:11;;;;;;;1.50;1.20;;;1.70;99.90;;;;;;5119781;28;20224;-65
2024/02/09 00:24:42;;;;;;;1.50;1.38;;;1.70;99.90;;;;;;5127561;28;20211;-66
2024/02/09 00:27:09;;;;;;;1.40;1.30;;;1.70;99.90;;;;;;5122222;28;20221;-67
2024/02/09 00:29:35;;;;;;;1.80;1.30;;;1.70;99.90;;;;;;5120479;28;20227;-67
2024/02/09 00:32:04;;;;;;;1.05;0.95;;;1.70;99.90;;;;;;5118181;28;20224;-67
2024/02/09 00:34:34;;;;;;;1.40;1.30;;;1.70;99.90;;;;;;5118827;28;20227;-66
2024/02/09 00:37:01;;;;;;;1.55;1.45;;;1.70;99.90;;;;;;5119209;28;20204;-68
2024/02/09 00:39:33;;;;;;;1.50;1.40;;;1.70;99.90;;;;;;5118914;28;20203;-67
2024/02/09 00:42:00;;;;;;;2.03;1.75;;;1.70;99.90;;;;;;5118049;28;20262;-66
2024/02/09 00:44:27;;;;;;;1.17;1.08;;;1.70;99.90;;;;;;5118328;28;20210;-62
2024/02/09 00:46:53;;;;;;;1.95;1.70;;;1.70;99.90;;;;;;5118344;28;20208;-67
2024/02/09 00:49:21;;;;;;;2.00;1.80;;;1.70;99.90;;;;;;5118553;28;20223;-66
2024/02/09 00:51:52;;;;;;;2.00;1.80;;;1.70;99.90;;;;;;5118179;28;20220;-66
2024/02/09 00:54:19;;;;;;;1.40;1.30;;;1.70;99.90;;;;;;5118814;28;20188;-67
2024/02/09 00:56:45;;;;;;;2.42;1.85;;;1.70;99.90;;;;;;5119009;28;20662;-66
2024/02/09 00:59:13;;;;;;;2.25;2.03;;;1.70;99.90;;;;;;5117758;28;20192;-65
2024/02/09 01:01:39;;;;;;;2.83;1.90;;;1.70;99.90;;;;;;5117669;28;20783;-66
2024/02/09 01:04:06;;;;;;;1.92;1.83;;;1.70;99.90;;;;;;5117919;28;20199;-65
2024/02/09 01:06:34;;;;;;;1.85;1.60;;;1.70;99.90;;;;;;5117783;28;20199;-66
2024/02/09 01:09:05;;;;;;;2.80;2.40;;;1.70;99.90;;;;;;5117612;28;20215;-66
2024/02/09 01:11:32;;;;;;;1.80;1.70;;;1.80;99.90;;;;;;5117940;28;20220;-66
2024/02/09 02:46:51;;;;;;;5.63;3.83;;;1.80;99.90;;;;;;5116177;28;20669;-67
2024/02/09 03:05:45;;;;;;;6.30;3.90;;;1.90;99.90;;;;;;5073394;28;20187;-63
2024/02/09 03:08:11;;;;;;;4.90;3.92;;;1.90;99.90;;;;;;5072985;28;20227;-63
2024/02/09 03:10:38;;;;;;;5.15;3.45;;;1.90;99.90;;;;;;5073800;28;20666;-63
2024/02/09 03:13:07;;;;;;;4.25;3.45;;;1.90;99.90;;;;;;5074264;28;20232;-62
2024/02/09 03:15:33;;;;;;;8.07;3.90;;;2.00;99.90;;;;;;5074268;28;20732;-63
2024/02/09 03:18:04;;;;;;;4.57;3.60;;;2.00;99.90;;;;;;5076054;28;20192;-63
2024/02/09 03:20:32;;;;;;;5.40;3.80;;;2.00;99.90;;;;;;5075383;28;20222;-63
2024/02/09 03:23:01;;;;;;;5.28;4.00;;;2.00;99.90;;;;;;5076942;28;20242;-63
2024/02/09 03:25:28;;;;;;;6.00;4.22;;;2.00;99.90;;;;;;5076981;28;20208;-63
2024/02/09 03:27:55;;;;;;;4.63;3.90;;;2.00;99.90;;;;;;5076191;28;20209;-63
2024/02/09 03:30:26;;;;;;;5.45;4.05;;;2.00;99.90;;;;;;5072976;28;20207;-62
2024/02/09 03:32:54;;;;;;;6.30;3.80;;;2.10;99.90;;;;;;5073462;28;20225;-63
2024/02/09 03:35:23;;;;;;;4.80;4.05;;;2.10;99.90;;;;;;5073281;28;20201;-62
2024/02/09 03:37:50;;;;;;;7.35;4.82;;;2.10;99.90;;;;;;5073041;28;20209;-63
2024/02/09 03:40:17;;;;;;;5.63;4.32;;;2.10;99.90;;;;;;5073052;28;20200;-63
2024/02/09 03:42:44;;;;;;;5.40;4.25;;;2.10;99.90;;;;;;5072906;28;20216;-63
2024/02/09 03:45:11;;;;;;;6.50;4.65;;;2.10;99.90;;;;;;5072813;28;20201;-63
2024/02/09 03:47:38;;;;;;;5.40;4.13;;;2.10;99.90;;;;;;5073127;28;20205;-62
2024/02/09 03:50:05;;;;;;;4.38;3.42;;;2.10;99.90;;;;;;5073380;28;20231;-64
2024/02/09 03:52:33;;;;;;;5.95;3.60;;;2.10;99.90;;;;;;5072787;28;20217;-64
2024/02/09 03:55:00;;;;;;;6.35;4.50;;;2.10;99.90;;;;;;5072889;28;20205;-64
2024/02/09 03:57:29;;;;;;;7.60;5.35;;;2.10;99.90;;;;;;5072971;28;20208;-63
2024/02/09 03:59:58;;;;;;;5.20;4.70;;;2.10;99.90;;;;;;5072606;28;20205;-62
2024/02/09 04:02:25;;;;;;;6.00;4.13;;;2.20;99.90;;;;;;5072263;28;20233;-63
2024/02/09 04:04:51;;;;;;;6.15;4.32;;;2.10;99.90;;;;;;5072726;28;20212;-64
2024/02/09 04:07:20;;;;;;;6.78;4.05;;;2.20;99.90;;;;;;5073107;28;20207;-63
2024/02/09 04:13:09;;;;;;;8.88;4.65;;;2.20;99.90;;;;;;5091182;27;21051;-62
2024/02/09 04:15:36;;;;;;;6.18;4.45;;;2.20;99.90;;;;;;5090079;28;20700;-63
2024/02/09 04:18:03;;;;;;;7.28;4.30;;;2.20;99.90;;;;;;5090330;28;20196;-64
2024/02/09 04:20:30;;;;;;;6.65;4.85;;;2.20;99.90;;;;;;5090422;28;20207;-63
2024/02/09 04:23:00;;;;;;;6.53;4.63;;;2.20;99.90;;;;;;5090444;28;20224;-61
2024/02/09 04:25:27;;;;;;;5.90;4.50;;;2.20;99.90;;;;;;5090417;28;20235;-63
2024/02/09 04:27:54;;;;;;;8.02;5.40;;;2.30;99.90;;;;;;5090242;28;20200;-63
2024/02/09 04:30:23;;;;;;;7.88;4.88;;;2.30;99.90;;;;;;5090171;28;20215;-63
2024/02/09 04:32:49;;;;;;;6.90;4.40;;;2.30;99.90;;;;;;5090289;28;20234;-63
2024/02/09 04:35:17;;;;;;;6.72;5.15;;;2.30;99.90;;;;;;5090581;28;20208;-64
2024/02/09 04:37:44;;;;;;;8.73;5.45;;;2.30;99.90;;;;;;5090613;28;20315;-63
2024/02/09 04:40:11;;;;;;;7.85;5.00;;;2.30;99.90;;;;;;5090742;28;20550;-64
2024/02/09 04:42:38;;;;;;;6.88;5.15;;;2.30;99.90;;;;;;5090763;28;20216;-65
2024/02/09 04:45:05;;;;;;;6.40;4.82;;;2.40;99.90;;;;;;5090304;28;20667;-64
2024/02/09 04:47:33;;;;;;;6.30;4.90;;;2.40;99.90;;;;;;5089999;28;20674;-64
2024/02/09 04:50:00;;;;;;;10.18;4.95;;;2.40;99.90;;;;;;5089836;28;20211;-64
2024/02/09 04:52:27;;;;;;;8.00;5.43;;;2.40;99.90;;;;;;5089645;28;20228;-63
2024/02/09 04:54:54;;;;;;;7.53;5.05;;;2.40;99.90;;;;;;5089327;28;20667;-63
2024/02/09 04:57:21;;;;;;;7.95;4.90;;;2.40;99.90;;;;;;5089895;28;20196;-63
2024/02/09 04:59:48;;;;;;;7.93;5.55;;;2.50;99.90;;;;;;5089242;28;20666;-66
2024/02/09 05:02:14;;;;;;;7.50;5.30;;;2.40;99.90;;;;;;5075317;22;20238;-62
2024/02/09 05:04:45;;;;;;;7.95;5.63;;;2.50;99.90;;;;;;5029047;28;20589;-62
2024/02/09 05:07:12;;;;;;;8.45;5.15;;;2.50;99.90;;;;;;5029114;28;20626;-62
2024/02/09 05:09:40;;;;;;;6.53;4.97;;;2.50;99.90;;;;;;5029531;28;20207;-61
2024/02/09 05:12:07;;;;;;;11.82;6.05;;;2.50;99.90;;;;;;5028576;28;20599;-62
2024/02/09 05:14:34;;;;;;;9.50;5.43;;;2.50;99.90;;;;;;5028762;28;20693;-61
2024/02/09 05:17:01;;;;;;;9.15;5.28;;;2.50;99.90;;;;;;5036179;28;20207;-62
2024/02/09 05:19:27;;;;;;;9.70;5.10;;;2.60;99.90;;;;;;5039309;28;20206;-63
2024/02/09 05:21:57;;;;;;;9.48;6.00;;;2.60;99.90;;;;;;5039444;28;20221;-62
2024/02/09 05:24:26;;;;;;;8.30;6.03;;;2.60;99.90;;;;;;5027373;28;20214;-62
2024/02/09 05:26:53;;;;;;;8.63;5.80;;;2.60;99.90;;;;;;5020809;28;20199;-62
2024/02/09 05:29:20;;;;;;;9.25;6.35;;;2.60;99.90;;;;;;5015588;28;20199;-62
2024/02/09 05:31:46;;;;;;;9.05;6.28;;;2.60;99.90;;;;;;5015308;28;20222;-61
2024/02/09 05:34:13;;;;;;;9.52;5.32;;;2.60;99.90;;;;;;5016255;28;20207;-62
2024/02/09 05:36:40;;;;;;;10.95;6.25;;;2.60;99.90;;;;;;5015939;28;20203;-61
2024/02/09 05:39:08;;;;;;;8.57;5.95;;;2.60;99.90;;;;;;5015582;28;20254;-62
2024/02/09 05:41:35;;;;;;;8.50;6.15;;;2.60;99.90;;;;;;5016242;28;20257;-62
2024/02/09 05:44:02;;;;;;;8.85;6.63;;;2.70;99.90;;;;;;5015601;28;20210;-62
2024/02/09 05:46:28;;;;;;;11.13;6.38;;;2.70;99.90;;;;;;5015503;28;20203;-61
2024/02/09 05:48:56;;;;;;;11.82;7.20;;;2.60;99.90;;;;;;5015670;28;20206;-61
2024/02/09 05:51:23;;;;;;;9.55;6.22;;;2.70;99.90;;;;;;5015646;28;20219;-62
2024/02/09 05:53:50;;;;;;;11.93;7.60;;;2.70;99.90;;;;;;5015713;28;20202;-62
2024/02/09 05:56:19;;;;;;;10.65;7.07;;;2.70;99.90;;;;;;5015441;28;20207;-62
2024/02/09 05:58:46;;;;;;;9.90;6.25;;;2.70;99.90;;;;;;5015630;28;20242;-62
2024/02/09 06:01:13;;;;;;;10.30;7.03;;;2.70;99.90;;;;;;5015776;28;20242;-62
2024/02/09 06:03:42;;;;;;;9.02;6.07;;;2.80;99.90;;;;;;5015124;28;20221;-62
2024/02/09 06:06:10;;;;;;;9.55;6.85;;;2.70;99.90;;;;;;5015136;28;20206;-62
2024/02/09 06:08:37;;;;;;;11.25;6.97;;;2.70;99.90;;;;;;5015900;28;20207;-62
2024/02/09 06:11:04;;;;;;;9.52;6.32;;;2.80;99.90;;;;;;5015254;28;20223;-62
2024/02/09 06:13:33;;;;;;;10.95;6.45;;;2.80;99.90;;;;;;5015071;28;20250;-62
2024/02/09 06:16:00;;;;;;;8.68;6.53;;;2.80;99.90;;;;;;5015535;28;20211;-61
2024/02/09 06:18:28;;;;;;;9.45;6.50;;;2.80;99.90;;;;;;5015279;28;20585;-63
2024/02/09 06:20:58;;;;;;;13.40;6.95;;;2.80;99.90;;;;;;5015928;28;20238;-62
2024/02/09 06:23:25;;;;;;;12.95;7.75;;;2.80;99.90;;;;;;5015826;28;20187;-62
2024/02/09 06:25:53;;;;;;;14.60;8.52;;;2.80;99.90;;;;;;5014761;28;20214;-62
2024/02/09 06:28:20;;;;;;;11.43;7.00;;;2.80;99.90;;;;;;5014893;28;20203;-61
2024/02/09 06:30:48;;;;;;;12.50;7.88;;;2.80;99.90;;;;;;5014929;28;20209;-61
2024/02/09 06:33:16;;;;;;;10.40;6.47;;;2.80;99.90;;;;;;5014881;28;20218;-61
2024/02/09 06:35:42;;;;;;;11.65;7.30;;;2.80;99.90;;;;;;5013747;28;20203;-61
2024/02/09 06:38:11;;;;;;;12.35;7.57;;;2.90;99.90;;;;;;5016769;28;20214;-62
2024/02/09 06:40:38;;;;;;;12.25;8.07;;;2.90;99.90;;;;;;5014505;28;20277;-62
2024/02/09 06:43:05;;;;;;;12.93;7.95;;;2.90;99.90;;;;;;5014275;28;20708;-63
2024/02/09 06:45:35;;;;;;;9.95;7.53;;;2.90;99.90;;;;;;5014397;28;20194;-62
2024/02/09 06:48:05;;;;;;;12.90;8.50;;;2.90;99.90;;;;;;5014900;28;20199;-63
2024/02/09 06:50:34;;;;;;;11.85;8.40;;;2.90;99.90;;;;;;5014700;28;20302;-62
2024/02/09 06:53:01;;;;;;;13.80;8.40;;;3.00;99.90;;;;;;5014343;28;20235;-61
2024/02/09 06:55:27;;;;;;;19.90;9.32;;;3.00;99.90;;;;;;5014519;28;20218;-62
2024/02/09 06:57:54;;;;;;;12.63;8.73;;;3.00;99.90;;;;;;5014882;28;20218;-62
2024/02/09 07:00:25;;;;;;;14.30;8.25;;;3.00;99.90;;;;;;5014296;28;20207;-62
2024/02/09 07:02:53;;;;;;;14.18;8.60;;;3.00;99.90;;;;;;5014064;28;20227;-63
2024/02/09 07:05:22;;;;;;;13.25;8.88;;;3.00;99.90;;;;;;5014005;28;20230;-62
2024/02/09 07:07:50;;;;;;;11.70;7.88;;;3.00;99.90;;;;;;5014265;28;20210;-64
2024/02/09 07:10:18;;;;;;;13.07;8.18;;;3.00;99.90;;;;;;5014529;28;20209;-62
2024/02/09 07:12:45;;;;;;;14.25;8.90;;;3.10;99.90;;;;;;5015067;28;20222;-62
2024/02/09 07:15:12;;;;;;;14.55;9.15;;;3.10;99.90;;;;;;5015318;28;20210;-62
2024/02/09 07:17:39;;;;;;;11.70;7.95;;;3.10;99.90;;;;;;5015256;28;20591;-63
2024/02/09 07:20:07;;;;;;;13.25;8.27;;;3.10;99.90;;;;;;5019863;28;20569;-62
2024/02/09 07:22:35;;;;;;;12.23;8.43;;;3.10;99.90;;;;;;5021219;28;20223;-63
2024/02/09 07:25:02;;;;;;;13.55;8.48;;;3.10;99.90;;;;;;5022924;28;20206;-63
2024/02/09 07:27:29;;;;;;;12.88;8.80;;;3.10;99.90;;;;;;5022840;28;20207;-62
2024/02/09 07:29:56;;;;;;;15.80;8.75;;;3.20;99.90;;;;;;5023041;28;20234;-63
2024/02/09 07:32:23;;;;;;;14.75;8.20;;;3.20;99.90;;;;;;5022864;28;20234;-62
2024/02/09 07:34:52;;;;;;;13.48;9.23;;;3.20;99.90;;;;;;5020230;28;20207;-61
2024/02/09 07:37:19;;;;;;;11.80;8.82;;;3.20;99.90;;;;;;5018696;28;20207;-62
2024/02/09 07:39:47;;;;;;;11.32;7.90;;;3.20;99.90;;;;;;5013334;28;20237;-63
2024/02/09 07:42:14;;;;;;;13.73;8.43;;;3.20;99.90;;;;;;5013231;28;20220;-62
2024/02/09 07:44:41;;;;;;;16.00;9.88;;;3.30;99.90;;;;;;5013195;28;20210;-63
2024/02/09 07:47:08;;;;;;;12.50;7.93;;;3.30;99.90;;;;;;5013690;28;20599;-63
2024/02/09 07:49:35;;;;;;;12.73;8.82;;;3.30;99.90;;;;;;5014653;28;20214;-62
2024/02/09 07:52:02;;;;;;;12.70;8.77;;;3.40;99.90;;;;;;5013251;28;20225;-63
2024/02/09 07:54:31;;;;;;;12.50;8.88;;;3.40;99.90;;;;;;5013075;28;20199;-63
2024/02/09 07:57:00;;;;;;;12.77;8.63;;;3.40;99.90;;;;;;5014926;28;20263;-62
2024/02/09 07:59:26;;;;;;;15.95;9.85;;;3.40;99.90;;;;;;5013368;28;20203;-62
2024/02/09 08:01:53;;;;;;;16.90;9.07;;;3.40;99.90;;;;;;5012650;28;20241;-64
2024/02/09 08:04:20;;;;;;;15.25;9.57;;;3.40;99.90;;;;;;5014097;28;20211;-63
2024/02/09 08:06:47;;;;;;;14.25;10.52;;;3.50;99.90;;;;;;5013629;28;20214;-64
2024/02/09 08:09:14;;;;;;;17.00;10.13;;;3.50;99.90;;;;;;5013351;28;20203;-63
2024/02/09 08:11:42;;;;;;;13.85;8.30;;;3.60;99.90;;;;;;5014078;28;20223;-62
2024/02/09 08:14:10;;;;;;;17.65;10.10;;;3.60;99.90;;;;;;5013283;28;20234;-62
2024/02/09 08:16:38;;;;;;;13.93;9.30;;;3.70;99.90;;;;;;5013503;28;20199;-61
2024/02/09 08:19:06;;;;;;;16.75;10.75;;;3.70;99.90;;;;;;5013063;28;20533;-62
2024/02/09 08:21:36;;;;;;;17.60;11.32;;;3.70;99.90;;;;;;5013643;28;20226;-61
2024/02/09 08:24:03;;;;;;;17.10;11.52;;;3.80;99.90;;;;;;5012718;28;20692;-62
2024/02/09 08:26:30;;;;;;;18.80;10.65;;;3.80;99.90;;;;;;5013222;28;20199;-61
2024/02/09 08:28:57;;;;;;;14.38;10.52;;;3.80;99.90;;;;;;5013089;28;20241;-62
2024/02/09 08:31:25;;;;;;;15.23;10.07;;;3.90;99.90;;;;;;5013666;28;20250;-60
2024/02/09 08:33:52;;;;;;;16.63;10.82;;;3.90;99.90;;;;;;5014463;28;20246;-62
2024/02/09 08:36:21;;;;;;;15.73;9.90;;;3.90;99.90;;;;;;5013921;28;20531;-63
2024/02/09 08:38:48;;;;;;;18.65;11.88;;;3.90;99.90;;;;;;5014704;28;20370;-61
2024/02/09 08:41:14;;;;;;;18.80;10.55;;;4.00;99.90;;;;;;5013293;28;20222;-62
2024/02/09 08:43:42;;;;;;;15.70;9.75;;;4.00;99.90;;;;;;5016458;28;20203;-61
2024/02/09 08:46:08;;;;;;;17.08;10.57;;;4.00;99.90;;;;;;5017449;28;20591;-61
2024/02/09 08:48:36;;;;;;;15.88;9.55;;;4.10;99.90;;;;;;5013701;28;20203;-61
2024/02/09 08:51:03;;;;;;;19.00;11.70;;;4.10;99.90;;;;;;5014139;28;20725;-61
2024/02/09 08:53:30;;;;;;;17.63;11.25;;;4.20;99.90;;;;;;5012455;28;20302;-61
2024/02/09 08:55:57;;;;;;;14.80;9.85;;;4.20;99.90;;;;;;5012871;28;20290;-61
2024/02/09 08:58:24;;;;;;;17.73;11.65;;;4.30;99.90;;;;;;5014121;28;20203;-61
2024/02/09 09:00:51;;;;;;;15.02;10.07;;;4.30;99.90;;;;;;5016467;28;20195;-61
2024/02/09 09:03:18;;;;;;;16.45;11.48;;;4.40;99.90;;;;;;5016780;28;20184;-60
2024/02/09 09:05:47;;;;;;;19.25;11.23;;;4.50;99.90;;;;;;5016827;28;20254;-62
2024/02/09 09:08:14;;;;;;;16.05;11.18;;;4.50;99.90;;;;;;5016726;28;20532;-61
2024/02/09 09:10:41;;;;;;;16.67;10.23;;;4.50;99.90;;;;;;5016176;28;20646;-61
2024/02/09 09:13:10;;;;;;;17.77;11.15;;;4.60;99.90;;;;;;5016113;28;20281;-61
2024/02/09 09:15:38;;;;;;;17.58;11.32;;;4.60;99.90;;;;;;5016158;28;20214;-61
2024/02/09 09:18:06;;;;;;;14.15;9.40;;;4.60;99.90;;;;;;5016439;28;20199;-62
2024/02/09 09:20:34;;;;;;;21.00;11.57;;;4.60;99.90;;;;;;5016039;28;20239;-61
2024/02/09 09:23:02;;;;;;;20.38;11.77;;;4.70;99.90;;;;;;5016031;28;20215;-61
2024/02/09 09:25:30;;;;;;;19.60;12.57;;;4.70;99.90;;;;;;5016131;28;20561;-61
2024/02/09 09:27:57;;;;;;;16.52;11.35;;;4.80;99.90;;;;;;5016064;28;20203;-60
2024/02/09 09:30:24;;;;;;;19.80;11.65;;;4.80;99.90;;;;;;5016150;28;20207;-60
2024/02/09 09:32:51;;;;;;;15.45;10.07;;;4.90;99.90;;;;;;5015466;28;20226;-61
2024/02/09 09:35:17;;;;;;;16.60;10.68;;;5.00;99.90;;;;;;5016338;28;20203;-61
2024/02/09 09:37:45;;;;;;;16.20;10.70;;;5.10;99.90;;;;;;5015426;28;20203;-62
2024/02/09 09:40:13;;;;;;;22.08;11.18;;;5.20;99.90;;;;;;5016130;28;20254;-61
2024/02/09 09:42:41;;;;;;;17.65;12.07;;;5.30;99.90;;;;;;5015809;28;20226;-61
2024/02/09 09:45:09;;;;;;;19.88;11.73;;;5.40;99.90;;;;;;5015618;28;20199;-60
2024/02/09 09:47:40;;;;;;;18.83;11.60;;;5.50;99.90;;;;;;5016025;28;20199;-61
2024/02/09 09:50:10;;;;;;;17.33;11.50;;;5.60;99.90;;;;;;5016561;28;20191;-62
2024/02/09 09:52:37;;;;;;;18.48;12.10;;;5.70;99.90;;;;;;5016497;28;20233;-62
2024/02/09 09:55:04;;;;;;;18.00;11.93;;;5.70;99.90;;;;;;5016257;28;20210;-62
2024/02/09 09:57:33;;;;;;;19.27;12.80;;;5.80;99.90;;;;;;5018831;28;20214;-62
2024/02/09 10:00:00;;;;;;;19.35;11.85;;;5.90;99.90;;;;;;5021338;28;20233;-62
2024/02/09 10:02:27;;;;;;;20.33;12.77;;;6.00;99.90;;;;;;5020230;28;20227;-61
2024/02/09 10:04:54;;;;;;;18.67;12.98;;;6.10;99.90;;;;;;5017655;28;20632;-61
2024/02/09 10:07:20;;;;;;;19.38;12.60;;;6.10;99.90;;;;;;5016029;28;20669;-62
2024/02/09 10:09:50;;;;;;;17.55;12.30;;;6.20;99.90;;;;;;5016165;28;20210;-66
2024/02/09 10:12:20;;;;;;;19.05;13.48;;;6.20;99.90;;;;;;5015902;28;20226;-61
2024/02/09 10:14:48;;;;;;;18.83;11.52;;;6.20;99.90;;;;;;5015678;28;20207;-62
2024/02/09 10:17:15;;;;;;;15.27;11.13;;;6.20;99.90;;;;;;5016020;28;20229;-62
2024/02/09 10:19:42;;;;;;;16.75;11.85;;;6.20;99.90;;;;;;5014926;28;20230;-62
2024/02/09 10:22:09;;;;;;;18.90;12.90;;;6.30;99.90;;;;;;5014813;28;20649;-61
2024/02/09 10:24:39;;;;;;;16.13;11.32;;;6.30;99.90;;;;;;5015464;28;20675;-61
2024/02/09 10:27:10;;;;;;;16.73;12.10;;;6.40;99.90;;;;;;5015608;28;20199;-61
2024/02/09 10:29:38;;;;;;;15.82;11.02;;;6.60;99.90;;;;;;5015187;28;20187;-61
2024/02/09 10:32:08;;;;;;;17.80;11.98;;;6.70;99.90;;;;;;5015341;28;20227;-62
2024/02/09 10:34:36;;;;;;;14.93;10.85;;;6.80;99.90;;;;;;5016047;28;20229;-60
2024/02/09 10:37:03;;;;;;;15.23;9.80;;;7.00;99.90;;;;;;5015744;28;20669;-61
2024/02/09 10:39:30;;;;;;;12.88;10.32;;;7.00;99.90;;;;;;5015369;28;20281;-62
2024/02/09 10:42:02;;;;;;;13.52;9.00;;;7.10;99.90;;;;;;5015327;28;20235;-61
2024/02/09 10:44:32;;;;;;;14.65;10.45;;;7.20;99.90;;;;;;5015471;28;20653;-62
2024/02/09 10:46:59;;;;;;;14.20;9.93;;;7.30;99.90;;;;;;5015698;28;20209;-62
2024/02/09 10:49:30;;;;;;;17.48;9.18;;;7.40;99.90;;;;;;5015965;28;20309;-62
2024/02/09 10:52:04;;;;;;;16.27;9.20;;;7.40;99.90;;;;;;5016552;28;20290;-61
2024/02/09 10:54:36;;;;;;;11.98;8.65;;;7.40;99.90;;;;;;5016383;28;20315;-62
2024/02/09 10:57:06;;;;;;;15.45;10.65;;;7.40;99.90;;;;;;5016733;28;20190;-62
2024/02/09 10:59:35;;;;;;;15.13;11.55;;;7.50;99.90;;;;;;5019750;28;20581;-62
2024/02/09 11:02:04;;;;;;;18.27;10.25;;;7.60;99.90;;;;;;5020148;28;20235;-62
2024/02/09 11:04:33;;;;;;;15.23;9.32;;;7.70;99.90;;;;;;5022366;28;20253;-62
2024/02/09 11:07:01;;;;;;;14.57;11.10;;;7.80;99.90;;;;;;5025614;28;20229;-62
2024/02/09 11:09:28;;;;;;;12.82;10.25;;;8.00;99.90;;;;;;5020914;28;20673;-65
2024/02/09 11:11:59;;;;;;;15.27;8.80;;;8.20;99.90;;;;;;5015420;28;20233;-62
2024/02/09 11:14:30;;;;;;;12.52;9.05;;;8.30;99.90;;;;;;5015434;28;20205;-62
2024/02/09 11:17:03;;;;;;;11.35;9.55;;;8.50;99.90;;;;;;5015550;28;20259;-62
2024/02/09 11:19:29;;;;;;;11.40;9.30;;;8.60;99.90;;;;;;5015349;28;20630;-62
2024/02/09 11:21:58;;;;;;;10.93;8.55;;;8.70;99.90;;;;;;5014593;28;20462;-61
2024/02/09 11:24:26;;;;;;;10.70;8.98;;;8.80;99.90;;;;;;5015748;28;20222;-62
2024/02/09 11:26:54;;;;;;;13.63;9.07;;;8.90;99.90;;;;;;5015577;28;20207;-63
2024/02/09 11:29:23;;;;;;;11.77;7.93;;;9.00;99.90;;;;;;5014598;28;20456;-62
2024/02/09 11:31:51;;;;;;;13.97;9.00;;;9.10;99.90;;;;;;5014985;28;20466;-63
2024/02/09 11:34:19;;;;;;;11.37;8.67;;;9.20;99.90;;;;;;5014694;28;20848;-60
2024/02/09 11:36:46;;;;;;;12.00;9.00;;;9.30;99.90;;;;;;5014901;28;20500;-62
2024/02/09 11:39:16;;;;;;;16.10;9.60;;;9.30;99.90;;;;;;5014803;28;20442;-61
2024/02/09 11:41:44;;;;;;;11.07;9.20;;;9.30;99.90;;;;;;5015639;28;20497;-62
2024/02/09 11:44:10;;;;;;;12.27;8.50;;;9.30;99.90;;;;;;5015045;28;20199;-62
2024/02/09 11:46:38;;;;;;;10.10;7.73;;;9.50;99.90;;;;;;5015158;28;20438;-62
2024/02/09 11:49:07;;;;;;;14.67;9.57;;;9.60;99.90;;;;;;5014837;28;20450;-62
2024/02/09 11:51:33;;;;;;;12.33;8.23;;;9.80;99.90;;;;;;5015394;28;20470;-60
2024/02/09 11:54:01;;;;;;;9.73;7.47;;;10.00;99.90;;;;;;5015769;28;20474;-63
2024/02/09 11:56:29;;;;;;;11.07;7.47;;;10.10;99.90;;;;;;5018804;28;20455;-62
2024/02/09 11:58:56;;;;;;;7.50;6.30;;;10.20;99.90;;;;;;5017602;28;20457;-62
2024/02/09 12:01:24;;;;;;;11.37;5.07;;;10.40;99.90;;;;;;5017464;28;21062;-63
2024/02/09 12:03:51;;;;;;;20.03;13.37;;;10.50;99.90;;;;;;5017117;28;20438;-63
2024/02/09 12:06:21;;;;;;;6.73;3.60;;;10.60;99.90;;;;;;5016757;28;20453;-62
2024/02/09 12:08:49;;;;;;;24.60;16.70;;;10.70;99.90;;;;;;5017924;28;20454;-63
2024/02/09 12:11:18;;;;;;;10.33;2.60;;;10.80;99.90;;;;;;5019679;28;20465;-63
2024/02/09 12:13:46;;;;;;;2.33;2.13;;;11.00;99.90;;;;;;5020097;28;20516;-62
2024/02/09 12:16:16;;;;;;;4.73;2.07;;;11.10;99.90;;;;;;5020675;28;20452;-62
2024/02/09 12:18:44;;;;;;;2.90;1.80;;;11.30;99.90;;;;;;5024357;28;20446;-62
2024/02/09 12:21:10;;;;;;;5.40;2.20;;;11.30;99.90;;;;;;5024235;28;20484;-62
2024/02/09 12:23:37;;;;;;;2.50;1.97;;;11.40;99.90;;;;;;5016993;28;20442;-62
2024/02/09 12:26:08;;;;;;;2.83;1.60;;;11.60;99.90;;;;;;5014958;28;20449;-63
2024/02/09 12:28:36;;;;;;;7.50;2.20;;;11.70;99.90;;;;;;5016267;28;20442;-62
2024/02/09 12:31:06;;;;;;;2.83;1.87;;;11.70;99.90;;;;;;5014033;28;20825;-62
2024/02/09 12:33:35;;;;;;;4.43;2.73;;;11.80;99.90;;;;;;5020356;28;20947;-62
2024/02/09 12:36:07;;;;;;;3.80;2.20;;;11.80;99.90;;;;;;5025320;28;20446;-61
2024/02/09 12:38:38;;;;;;;3.00;2.10;;;11.80;99.90;;;;;;5021139;28;20878;-62
2024/02/09 12:41:05;;;;;;;3.70;2.00;;;11.80;99.90;;;;;;5018626;28;20819;-62
2024/02/09 12:43:32;;;;;;;2.63;2.00;;;11.80;99.90;;;;;;5018218;28;20461;-62
2024/02/09 12:46:00;;;;;;;4.83;2.30;;;11.90;99.90;;;;;;5019910;28;20446;-63
2024/02/09 12:48:28;;;;;;;6.13;2.23;;;11.90;99.90;;;;;;5020140;28;20465;-64
2024/02/09 12:50:56;;;;;;;4.20;2.70;;;11.90;99.90;;;;;;5018959;28;20465;-63
2024/02/09 12:53:22;;;;;;;2.67;2.07;;;11.90;99.90;;;;;;5018528;28;20453;-63
2024/02/09 12:55:49;;;;;;;3.47;2.30;;;11.90;99.90;;;;;;5020127;28;20441;-62
2024/02/09 12:58:16;;;;;;;2.70;1.80;;;11.90;99.90;;;;;;5017899;28;20554;-61
2024/02/09 13:00:44;;;;;;;3.07;1.67;;;11.90;99.90;;;;;;5017901;28;20446;-61
2024/02/09 13:03:11;;;;;;;3.67;2.00;;;11.90;99.90;;;;;;5018253;28;20540;-63
2024/02/09 13:05:40;;;;;;;1.87;1.70;;;11.80;99.90;;;;;;5017917;28;20441;-61
2024/02/09 13:08:09;;;;;;;3.77;1.93;;;11.80;99.90;;;;;;5018195;28;20533;-62
2024/02/09 13:10:37;;;;;;;4.43;3.57;;;11.90;99.90;;;;;;5017718;28;20475;-59
2024/02/09 13:13:06;;;;;;;4.20;2.30;;;11.90;99.90;;;;;;5017651;28;20470;-62
2024/02/09 13:15:34;;;;;;;3.63;1.70;;;11.90;99.90;;;;;;5017533;28;20485;-64
2024/02/09 13:18:01;;;;;;;2.93;2.20;;;12.00;99.90;;;;;;5017335;28;20446;-61
2024/02/09 13:20:28;;;;;;;2.27;2.07;;;12.00;99.90;;;;;;5017248;28;20442;-65
2024/02/09 13:22:57;;;;;;;4.07;2.30;;;12.10;99.90;;;;;;5016957;28;20466;-63
2024/02/09 13:25:24;;;;;;;3.07;2.37;;;12.20;99.90;;;;;;5017272;28;20508;-62
2024/02/09 13:27:51;;;;;;;3.70;2.20;;;12.20;99.90;;;;;;5017687;28;20448;-62
2024/02/09 13:30:20;;;;;;;4.13;2.03;;;12.30;99.90;;;;;;5017452;28;20452;-61
2024/02/09 13:32:48;;;;;;;4.03;2.40;;;12.30;99.90;;;;;;5017595;28;20461;-62
2024/02/09 13:35:17;;;;;;;1.63;1.50;;;12.40;99.90;;;;;;5017129;28;20482;-61
2024/02/09 13:37:45;;;;;;;3.00;2.20;;;12.50;99.90;;;;;;5017248;28;20454;-62
2024/02/09 13:40:15;;;;;;;4.00;2.70;;;12.60;99.90;;;;;;5018368;28;20442;-61
2024/02/09 13:42:45;;;;;;;4.07;1.97;;;12.70;99.90;;;;;;5019011;28;20470;-61
2024/02/09 13:45:13;;;;;;;2.33;1.73;;;12.80;99.90;;;;;;5016942;28;20434;-62
2024/02/09 13:47:40;;;;;;;7.73;2.47;;;12.80;99.90;;;;;;5016835;28;20472;-62
2024/02/09 13:50:10;;;;;;;3.70;2.07;;;12.90;99.90;;;;;;5016650;28;20956;-61
2024/02/09 13:52:37;;;;;;;5.47;2.00;;;13.00;99.90;;;;;;5017816;28;20861;-63
2024/02/09 13:55:04;;;;;;;3.77;1.90;;;13.00;99.90;;;;;;5018129;28;20488;-62
2024/02/09 13:57:32;;;;;;;4.50;1.73;;;13.00;99.90;;;;;;5022092;28;20446;-61
2024/02/09 13:59:59;;;;;;;4.77;2.30;;;13.00;99.90;;;;;;5023304;28;20458;-61
2024/02/09 14:02:27;;;;;;;6.77;2.20;;;13.00;99.90;;;;;;5021087;28;20492;-62
2024/02/09 14:04:54;;;;;;;3.50;2.10;;;12.90;99.90;;;;;;5020871;28;20955;-60
2024/02/09 14:07:23;;;;;;;1.40;1.30;;;12.90;99.90;;;;;;5021309;28;20456;-63
2024/02/09 14:09:49;;;;;;;2.70;1.70;;;12.90;99.90;;;;;;5021589;28;20446;-62
2024/02/09 14:12:16;;;;;;;1.87;1.57;;;12.80;99.90;;;;;;5020907;28;20558;-59
2024/02/09 14:14:45;;;;;;;2.40;2.20;;;12.80;99.90;;;;;;5018799;28;20489;-60
2024/02/09 14:17:13;;;;;;;4.70;2.57;;;12.90;99.90;;;;;;5018919;28;20442;-61
2024/02/09 14:19:42;;;;;;;1.90;1.60;;;12.90;99.90;;;;;;5020070;28;20477;-63
2024/02/09 14:22:10;;;;;;;4.20;1.97;;;12.80;99.90;;;;;;5018405;28;20470;-61
2024/02/09 14:24:38;;;;;;;3.37;1.90;;;12.80;99.90;;;;;;5017829;28;20813;-60
2024/02/09 14:27:05;;;;;;;2.43;1.60;;;12.80;99.90;;;;;;5018223;28;20446;-61
2024/02/09 14:29:33;;;;;;;4.83;2.23;;;12.70;99.90;;;;;;5017648;28;20454;-60
2024/02/09 14:32:02;;;;;;;3.90;2.20;;;12.70;99.90;;;;;;5017310;28;20466;-61
2024/02/09 14:34:29;;;;;;;4.47;2.13;;;12.70;99.90;;;;;;5018512;28;20583;-60
2024/02/09 14:36:56;;;;;;;3.87;2.50;;;12.70;99.90;;;;;;5019124;28;20442;-65
2024/02/09 14:39:23;;;;;;;2.50;1.87;;;12.70;99.90;;;;;;5018060;28;20549;-59
2024/02/09 14:41:50;;;;;;;2.33;1.87;;;12.70;99.90;;;;;;5017671;28;20498;-61